sensor_id;sensor_type;location;lat;lon;timestamp;P1;durP1;ratioP1;P2;durP2;ratioP2
6223;SDS011;3145;42.726;23.342;2022-12-19T00:00:00;31.13;;;20.40;;
6223;SDS011;3145;42.726;23.342;2022-12-19T00:02:27;29.77;;;19.83;;
6223;SDS011;3145;42.726;23.342;2022-12-19T00:04:54;30.40;;;19.83;;
6223;SDS011;3145;42.726;23.342;2022-12-19T00:07:20;25.80;;;19.23;;
6223;SDS011;3145;42.726;23.342;2022-12-19T00:09:47;31.43;;;19.70;;
6223;SDS011;3145;42.726;23.342;2022-12-19T00:12:14;33.43;;;20.93;;
6223;SDS011;3145;42.726;23.342;2022-12-19T00:14:41;33.83;;;20.43;;
6223;SDS011;3145;42.726;23.342;2022-12-19T00:17:09;36.03;;;21.53;;
6223;SDS011;3145;42.726;23.342;2022-12-19T00:19:35;32.63;;;20.30;;
6223;SDS011;3145;42.726;23.342;2022-12-19T00:22:02;32.43;;;21.13;;
6223;SDS011;3145;42.726;23.342;2022-12-19T00:24:29;35.10;;;21.83;;
6223;SDS011;3145;42.726;23.342;2022-12-19T00:26:56;32.77;;;21.67;;
6223;SDS011;3145;42.726;23.342;2022-12-19T00:29:22;34.80;;;19.63;;
6223;SDS011;3145;42.726;23.342;2022-12-19T00:31:49;29.70;;;20.87;;
6223;SDS011;3145;42.726;23.342;2022-12-19T00:34:17;32.37;;;21.13;;
6223;SDS011;3145;42.726;23.342;2022-12-19T00:36:44;38.10;;;22.20;;
6223;SDS011;3145;42.726;23.342;2022-12-19T00:39:11;31.40;;;18.83;;
6223;SDS011;3145;42.726;23.342;2022-12-19T00:41:38;32.47;;;21.03;;
6223;SDS011;3145;42.726;23.342;2022-12-19T00:44:06;33.30;;;21.37;;
6223;SDS011;3145;42.726;23.342;2022-12-19T00:46:36;34.20;;;22.37;;
6223;SDS011;3145;42.726;23.342;2022-12-19T00:49:03;34.67;;;21.50;;
6223;SDS011;3145;42.726;23.342;2022-12-19T00:51:33;33.57;;;22.50;;
6223;SDS011;3145;42.726;23.342;2022-12-19T00:54:01;33.33;;;21.70;;
6223;SDS011;3145;42.726;23.342;2022-12-19T00:56:29;36.30;;;22.40;;
6223;SDS011;3145;42.726;23.342;2022-12-19T00:58:57;35.60;;;22.50;;
6223;SDS011;3145;42.726;23.342;2022-12-19T01:01:25;30.27;;;22.07;;
6223;SDS011;3145;42.726;23.342;2022-12-19T01:03:53;31.97;;;22.17;;
6223;SDS011;3145;42.726;23.342;2022-12-19T01:06:20;38.07;;;24.33;;
6223;SDS011;3145;42.726;23.342;2022-12-19T01:08:48;33.27;;;21.60;;
6223;SDS011;3145;42.726;23.342;2022-12-19T01:11:15;38.63;;;23.77;;
6223;SDS011;3145;42.726;23.342;2022-12-19T01:13:42;33.53;;;21.50;;
6223;SDS011;3145;42.726;23.342;2022-12-19T01:16:09;30.10;;;20.37;;
6223;SDS011;3145;42.726;23.342;2022-12-19T01:18:37;41.67;;;26.63;;
6223;SDS011;3145;42.726;23.342;2022-12-19T01:21:05;36.77;;;23.83;;
6223;SDS011;3145;42.726;23.342;2022-12-19T01:23:34;33.23;;;21.77;;
6223;SDS011;3145;42.726;23.342;2022-12-19T01:26:03;33.73;;;21.83;;
6223;SDS011;3145;42.726;23.342;2022-12-19T01:28:30;33.43;;;23.03;;
6223;SDS011;3145;42.726;23.342;2022-12-19T01:30:56;32.00;;;21.13;;
6223;SDS011;3145;42.726;23.342;2022-12-19T01:33:23;32.63;;;21.80;;
6223;SDS011;3145;42.726;23.342;2022-12-19T01:35:50;38.20;;;24.43;;
6223;SDS011;3145;42.726;23.342;2022-12-19T01:38:17;35.80;;;23.03;;
6223;SDS011;3145;42.726;23.342;2022-12-19T01:40:49;38.73;;;22.67;;
6223;SDS011;3145;42.726;23.342;2022-12-19T01:43:18;34.93;;;22.07;;
6223;SDS011;3145;42.726;23.342;2022-12-19T01:45:46;35.93;;;21.27;;
6223;SDS011;3145;42.726;23.342;2022-12-19T01:48:16;31.73;;;21.47;;
6223;SDS011;3145;42.726;23.342;2022-12-19T01:50:49;33.43;;;20.97;;
6223;SDS011;3145;42.726;23.342;2022-12-19T01:53:19;32.77;;;21.37;;
6223;SDS011;3145;42.726;23.342;2022-12-19T01:55:48;32.60;;;21.07;;
6223;SDS011;3145;42.726;23.342;2022-12-19T01:58:15;31.80;;;20.47;;
6223;SDS011;3145;42.726;23.342;2022-12-19T02:00:43;35.23;;;21.20;;
6223;SDS011;3145;42.726;23.342;2022-12-19T02:03:13;32.33;;;21.17;;
6223;SDS011;3145;42.726;23.342;2022-12-19T02:05:44;34.37;;;21.10;;
6223;SDS011;3145;42.726;23.342;2022-12-19T02:08:11;33.50;;;21.77;;
6223;SDS011;3145;42.726;23.342;2022-12-19T02:10:39;31.63;;;21.30;;
6223;SDS011;3145;42.726;23.342;2022-12-19T02:13:06;33.57;;;20.67;;
6223;SDS011;3145;42.726;23.342;2022-12-19T02:15:36;34.70;;;21.03;;
6223;SDS011;3145;42.726;23.342;2022-12-19T02:18:12;34.30;;;21.50;;
6223;SDS011;3145;42.726;23.342;2022-12-19T02:32:34;28.97;;;20.57;;
6223;SDS011;3145;42.726;23.342;2022-12-19T02:35:13;33.73;;;20.93;;
6223;SDS011;3145;42.726;23.342;2022-12-19T02:37:49;37.83;;;23.93;;
6223;SDS011;3145;42.726;23.342;2022-12-19T02:40:21;34.87;;;22.30;;
6223;SDS011;3145;42.726;23.342;2022-12-19T02:42:53;42.90;;;22.37;;
6223;SDS011;3145;42.726;23.342;2022-12-19T02:45:24;34.60;;;21.90;;
6223;SDS011;3145;42.726;23.342;2022-12-19T02:47:56;32.10;;;21.20;;
6223;SDS011;3145;42.726;23.342;2022-12-19T02:50:25;33.40;;;20.83;;
6223;SDS011;3145;42.726;23.342;2022-12-19T02:52:51;32.80;;;21.07;;
6223;SDS011;3145;42.726;23.342;2022-12-19T02:55:19;35.40;;;22.03;;
6223;SDS011;3145;42.726;23.342;2022-12-19T02:57:57;33.60;;;22.73;;
6223;SDS011;3145;42.726;23.342;2022-12-19T03:00:44;32.77;;;20.90;;
6223;SDS011;3145;42.726;23.342;2022-12-19T03:03:22;31.63;;;21.10;;
6223;SDS011;3145;42.726;23.342;2022-12-19T03:05:59;33.00;;;21.03;;
6223;SDS011;3145;42.726;23.342;2022-12-19T03:08:36;32.63;;;21.60;;
6223;SDS011;3145;42.726;23.342;2022-12-19T03:11:10;33.97;;;22.20;;
6223;SDS011;3145;42.726;23.342;2022-12-19T03:13:40;33.27;;;21.30;;
6223;SDS011;3145;42.726;23.342;2022-12-19T03:16:11;39.30;;;22.43;;
6223;SDS011;3145;42.726;23.342;2022-12-19T03:18:40;35.17;;;21.87;;
6223;SDS011;3145;42.726;23.342;2022-12-19T03:21:08;32.40;;;21.53;;
6223;SDS011;3145;42.726;23.342;2022-12-19T03:23:39;36.17;;;21.73;;
6223;SDS011;3145;42.726;23.342;2022-12-19T03:26:08;34.43;;;21.40;;
6223;SDS011;3145;42.726;23.342;2022-12-19T03:28:39;36.30;;;20.63;;
6223;SDS011;3145;42.726;23.342;2022-12-19T03:31:09;36.47;;;20.63;;
6223;SDS011;3145;42.726;23.342;2022-12-19T03:33:40;35.80;;;21.27;;
6223;SDS011;3145;42.726;23.342;2022-12-19T03:36:10;38.30;;;21.47;;
6223;SDS011;3145;42.726;23.342;2022-12-19T03:38:42;37.00;;;21.23;;
6223;SDS011;3145;42.726;23.342;2022-12-19T03:41:11;37.20;;;23.47;;
6223;SDS011;3145;42.726;23.342;2022-12-19T03:43:40;31.70;;;21.77;;
6223;SDS011;3145;42.726;23.342;2022-12-19T03:46:09;35.80;;;23.07;;
6223;SDS011;3145;42.726;23.342;2022-12-19T03:48:42;34.30;;;22.17;;
6223;SDS011;3145;42.726;23.342;2022-12-19T03:51:15;33.17;;;22.00;;
6223;SDS011;3145;42.726;23.342;2022-12-19T03:53:52;47.50;;;24.03;;
6223;SDS011;3145;42.726;23.342;2022-12-19T03:56:29;38.60;;;24.50;;
6223;SDS011;3145;42.726;23.342;2022-12-19T03:59:00;41.57;;;22.77;;
6223;SDS011;3145;42.726;23.342;2022-12-19T04:01:32;33.87;;;22.00;;
6223;SDS011;3145;42.726;23.342;2022-12-19T04:04:02;36.50;;;21.83;;
6223;SDS011;3145;42.726;23.342;2022-12-19T04:06:32;34.43;;;21.20;;
6223;SDS011;3145;42.726;23.342;2022-12-19T04:09:00;35.27;;;21.77;;
6223;SDS011;3145;42.726;23.342;2022-12-19T04:11:29;44.40;;;24.57;;
6223;SDS011;3145;42.726;23.342;2022-12-19T04:14:02;35.33;;;22.27;;
6223;SDS011;3145;42.726;23.342;2022-12-19T04:16:33;36.60;;;20.27;;
6223;SDS011;3145;42.726;23.342;2022-12-19T04:19:09;38.30;;;22.37;;
6223;SDS011;3145;42.726;23.342;2022-12-19T04:21:40;35.93;;;22.90;;
6223;SDS011;3145;42.726;23.342;2022-12-19T04:24:13;41.67;;;22.57;;
6223;SDS011;3145;42.726;23.342;2022-12-19T04:26:45;36.87;;;24.27;;
6223;SDS011;3145;42.726;23.342;2022-12-19T04:29:14;36.57;;;23.30;;
6223;SDS011;3145;42.726;23.342;2022-12-19T04:31:42;34.97;;;22.53;;
6223;SDS011;3145;42.726;23.342;2022-12-19T04:34:11;32.93;;;23.20;;
6223;SDS011;3145;42.726;23.342;2022-12-19T04:36:39;39.17;;;23.17;;
6223;SDS011;3145;42.726;23.342;2022-12-19T04:39:05;40.20;;;21.90;;
6223;SDS011;3145;42.726;23.342;2022-12-19T04:41:32;37.20;;;23.93;;
6223;SDS011;3145;42.726;23.342;2022-12-19T04:43:59;37.17;;;23.63;;
6223;SDS011;3145;42.726;23.342;2022-12-19T04:46:25;34.47;;;22.73;;
6223;SDS011;3145;42.726;23.342;2022-12-19T04:48:52;37.60;;;23.23;;
6223;SDS011;3145;42.726;23.342;2022-12-19T04:51:20;37.97;;;23.33;;
6223;SDS011;3145;42.726;23.342;2022-12-19T04:53:47;38.47;;;23.83;;
6223;SDS011;3145;42.726;23.342;2022-12-19T04:56:14;39.63;;;24.30;;
6223;SDS011;3145;42.726;23.342;2022-12-19T04:58:40;39.67;;;24.13;;
6223;SDS011;3145;42.726;23.342;2022-12-19T05:01:07;38.10;;;24.47;;
6223;SDS011;3145;42.726;23.342;2022-12-19T05:03:34;38.73;;;22.30;;
6223;SDS011;3145;42.726;23.342;2022-12-19T05:06:02;37.47;;;23.83;;
6223;SDS011;3145;42.726;23.342;2022-12-19T05:08:31;37.40;;;23.73;;
6223;SDS011;3145;42.726;23.342;2022-12-19T05:10:58;38.93;;;24.37;;
6223;SDS011;3145;42.726;23.342;2022-12-19T05:13:25;38.63;;;25.07;;
6223;SDS011;3145;42.726;23.342;2022-12-19T05:15:55;35.57;;;23.70;;
6223;SDS011;3145;42.726;23.342;2022-12-19T05:18:22;40.80;;;24.73;;
6223;SDS011;3145;42.726;23.342;2022-12-19T05:20:49;46.13;;;25.53;;
6223;SDS011;3145;42.726;23.342;2022-12-19T05:23:16;59.07;;;31.80;;
6223;SDS011;3145;42.726;23.342;2022-12-19T05:25:44;60.70;;;31.77;;
6223;SDS011;3145;42.726;23.342;2022-12-19T05:28:11;57.47;;;30.87;;
6223;SDS011;3145;42.726;23.342;2022-12-19T05:30:38;45.83;;;28.30;;
6223;SDS011;3145;42.726;23.342;2022-12-19T05:33:05;53.90;;;30.37;;
6223;SDS011;3145;42.726;23.342;2022-12-19T05:35:32;49.63;;;30.63;;
6223;SDS011;3145;42.726;23.342;2022-12-19T05:37:59;55.30;;;34.63;;
6223;SDS011;3145;42.726;23.342;2022-12-19T05:40:26;60.20;;;34.53;;
6223;SDS011;3145;42.726;23.342;2022-12-19T05:42:55;62.53;;;33.23;;
6223;SDS011;3145;42.726;23.342;2022-12-19T05:45:21;57.00;;;31.83;;
6223;SDS011;3145;42.726;23.342;2022-12-19T05:47:48;50.70;;;30.23;;
6223;SDS011;3145;42.726;23.342;2022-12-19T05:50:15;56.47;;;31.50;;
6223;SDS011;3145;42.726;23.342;2022-12-19T05:52:43;49.93;;;29.90;;
6223;SDS011;3145;42.726;23.342;2022-12-19T05:55:10;52.20;;;29.90;;
6223;SDS011;3145;42.726;23.342;2022-12-19T05:57:36;48.73;;;28.93;;
6223;SDS011;3145;42.726;23.342;2022-12-19T06:00:05;46.77;;;29.17;;
6223;SDS011;3145;42.726;23.342;2022-12-19T06:02:33;45.83;;;27.70;;
6223;SDS011;3145;42.726;23.342;2022-12-19T06:05:00;47.93;;;27.73;;
6223;SDS011;3145;42.726;23.342;2022-12-19T06:07:26;48.03;;;27.13;;
6223;SDS011;3145;42.726;23.342;2022-12-19T06:09:53;43.97;;;27.37;;
6223;SDS011;3145;42.726;23.342;2022-12-19T06:12:20;40.40;;;26.47;;
6223;SDS011;3145;42.726;23.342;2022-12-19T06:14:47;43.03;;;28.50;;
6223;SDS011;3145;42.726;23.342;2022-12-19T06:17:15;43.93;;;28.13;;
6223;SDS011;3145;42.726;23.342;2022-12-19T06:19:42;45.27;;;27.77;;
6223;SDS011;3145;42.726;23.342;2022-12-19T06:22:09;42.80;;;26.87;;
6223;SDS011;3145;42.726;23.342;2022-12-19T06:24:36;39.63;;;26.50;;
6223;SDS011;3145;42.726;23.342;2022-12-19T06:27:02;43.00;;;28.03;;
6223;SDS011;3145;42.726;23.342;2022-12-19T06:29:29;55.27;;;30.73;;
6223;SDS011;3145;42.726;23.342;2022-12-19T06:31:56;49.17;;;30.27;;
6223;SDS011;3145;42.726;23.342;2022-12-19T06:34:24;47.90;;;31.47;;
6223;SDS011;3145;42.726;23.342;2022-12-19T06:36:54;61.77;;;34.87;;
6223;SDS011;3145;42.726;23.342;2022-12-19T06:39:20;55.97;;;33.03;;
6223;SDS011;3145;42.726;23.342;2022-12-19T06:41:47;56.47;;;33.77;;
6223;SDS011;3145;42.726;23.342;2022-12-19T06:44:31;54.93;;;32.10;;
6223;SDS011;3145;42.726;23.342;2022-12-19T06:46:58;48.97;;;28.53;;
6223;SDS011;3145;42.726;23.342;2022-12-19T06:49:27;56.63;;;33.00;;
6223;SDS011;3145;42.726;23.342;2022-12-19T06:51:53;80.60;;;43.17;;
6223;SDS011;3145;42.726;23.342;2022-12-19T06:54:20;82.70;;;42.87;;
6223;SDS011;3145;42.726;23.342;2022-12-19T06:56:47;72.30;;;39.03;;
6223;SDS011;3145;42.726;23.342;2022-12-19T06:59:14;54.10;;;32.77;;
6223;SDS011;3145;42.726;23.342;2022-12-19T07:01:49;57.63;;;33.83;;
6223;SDS011;3145;42.726;23.342;2022-12-19T07:04:23;50.67;;;27.50;;
6223;SDS011;3145;42.726;23.342;2022-12-19T07:06:55;50.07;;;29.30;;
6223;SDS011;3145;42.726;23.342;2022-12-19T07:09:22;43.87;;;27.97;;
6223;SDS011;3145;42.726;23.342;2022-12-19T07:11:49;52.37;;;29.63;;
6223;SDS011;3145;42.726;23.342;2022-12-19T07:14:16;63.07;;;28.47;;
6223;SDS011;3145;42.726;23.342;2022-12-19T07:16:43;48.77;;;28.17;;
6223;SDS011;3145;42.726;23.342;2022-12-19T07:19:10;97.93;;;31.27;;
6223;SDS011;3145;42.726;23.342;2022-12-19T07:21:38;44.63;;;26.13;;
6223;SDS011;3145;42.726;23.342;2022-12-19T07:24:07;49.13;;;26.67;;
6223;SDS011;3145;42.726;23.342;2022-12-19T07:26:35;50.70;;;27.00;;
6223;SDS011;3145;42.726;23.342;2022-12-19T07:29:02;55.73;;;31.03;;
6223;SDS011;3145;42.726;23.342;2022-12-19T07:31:29;50.50;;;32.37;;
6223;SDS011;3145;42.726;23.342;2022-12-19T07:33:56;55.27;;;30.80;;
6223;SDS011;3145;42.726;23.342;2022-12-19T07:36:23;73.10;;;40.97;;
6223;SDS011;3145;42.726;23.342;2022-12-19T07:38:49;67.23;;;36.57;;
6223;SDS011;3145;42.726;23.342;2022-12-19T07:41:17;60.20;;;34.20;;
6223;SDS011;3145;42.726;23.342;2022-12-19T07:43:44;70.13;;;41.63;;
6223;SDS011;3145;42.726;23.342;2022-12-19T07:46:11;71.33;;;39.23;;
6223;SDS011;3145;42.726;23.342;2022-12-19T07:48:38;69.10;;;35.43;;
6223;SDS011;3145;42.726;23.342;2022-12-19T07:51:04;55.17;;;31.20;;
6223;SDS011;3145;42.726;23.342;2022-12-19T07:53:31;51.23;;;30.70;;
6223;SDS011;3145;42.726;23.342;2022-12-19T07:55:58;73.43;;;38.70;;
6223;SDS011;3145;42.726;23.342;2022-12-19T07:58:26;74.03;;;38.97;;
6223;SDS011;3145;42.726;23.342;2022-12-19T08:00:53;72.87;;;40.47;;
6223;SDS011;3145;42.726;23.342;2022-12-19T08:03:21;83.50;;;44.33;;
6223;SDS011;3145;42.726;23.342;2022-12-19T08:05:48;75.77;;;43.07;;
6223;SDS011;3145;42.726;23.342;2022-12-19T08:08:15;76.97;;;45.13;;
6223;SDS011;3145;42.726;23.342;2022-12-19T08:10:42;108.40;;;60.53;;
6223;SDS011;3145;42.726;23.342;2022-12-19T08:13:08;97.83;;;52.83;;
6223;SDS011;3145;42.726;23.342;2022-12-19T08:15:40;69.80;;;39.80;;
6223;SDS011;3145;42.726;23.342;2022-12-19T08:18:06;65.23;;;36.23;;
6223;SDS011;3145;42.726;23.342;2022-12-19T08:20:33;59.20;;;36.27;;
6223;SDS011;3145;42.726;23.342;2022-12-19T08:23:00;77.60;;;43.87;;
6223;SDS011;3145;42.726;23.342;2022-12-19T08:25:27;84.37;;;44.87;;
6223;SDS011;3145;42.726;23.342;2022-12-19T08:27:53;69.77;;;42.13;;
6223;SDS011;3145;42.726;23.342;2022-12-19T08:30:20;90.43;;;44.50;;
6223;SDS011;3145;42.726;23.342;2022-12-19T08:32:48;78.10;;;45.13;;
6223;SDS011;3145;42.726;23.342;2022-12-19T08:35:15;70.00;;;41.43;;
6223;SDS011;3145;42.726;23.342;2022-12-19T08:37:42;68.23;;;38.43;;
6223;SDS011;3145;42.726;23.342;2022-12-19T08:40:09;80.17;;;42.83;;
6223;SDS011;3145;42.726;23.342;2022-12-19T08:42:36;67.93;;;38.97;;
6223;SDS011;3145;42.726;23.342;2022-12-19T08:45:03;71.50;;;41.17;;
6223;SDS011;3145;42.726;23.342;2022-12-19T08:47:31;77.37;;;40.30;;
6223;SDS011;3145;42.726;23.342;2022-12-19T08:49:59;77.87;;;38.77;;
6223;SDS011;3145;42.726;23.342;2022-12-19T08:52:26;73.20;;;39.27;;
6223;SDS011;3145;42.726;23.342;2022-12-19T08:54:52;68.53;;;37.77;;
6223;SDS011;3145;42.726;23.342;2022-12-19T08:57:19;64.50;;;35.17;;
6223;SDS011;3145;42.726;23.342;2022-12-19T08:59:46;65.00;;;36.37;;
6223;SDS011;3145;42.726;23.342;2022-12-19T09:02:13;63.70;;;36.37;;
6223;SDS011;3145;42.726;23.342;2022-12-19T09:04:40;67.50;;;36.33;;
6223;SDS011;3145;42.726;23.342;2022-12-19T09:07:08;73.83;;;39.20;;
6223;SDS011;3145;42.726;23.342;2022-12-19T09:09:35;88.13;;;41.87;;
6223;SDS011;3145;42.726;23.342;2022-12-19T09:12:02;68.37;;;36.67;;
6223;SDS011;3145;42.726;23.342;2022-12-19T09:14:31;76.93;;;38.20;;
6223;SDS011;3145;42.726;23.342;2022-12-19T09:16:59;69.83;;;37.30;;
6223;SDS011;3145;42.726;23.342;2022-12-19T09:19:25;85.23;;;40.57;;
6223;SDS011;3145;42.726;23.342;2022-12-19T09:21:52;76.40;;;37.50;;
6223;SDS011;3145;42.726;23.342;2022-12-19T09:24:20;69.17;;;34.57;;
6223;SDS011;3145;42.726;23.342;2022-12-19T09:26:47;77.03;;;44.77;;
6223;SDS011;3145;42.726;23.342;2022-12-19T09:29:14;119.10;;;64.10;;
6223;SDS011;3145;42.726;23.342;2022-12-19T09:31:41;123.23;;;71.20;;
6223;SDS011;3145;42.726;23.342;2022-12-19T09:34:07;106.73;;;59.80;;
6223;SDS011;3145;42.726;23.342;2022-12-19T09:36:34;86.57;;;47.13;;
6223;SDS011;3145;42.726;23.342;2022-12-19T09:39:01;94.57;;;52.77;;
6223;SDS011;3145;42.726;23.342;2022-12-19T09:41:35;72.57;;;36.40;;
6223;SDS011;3145;42.726;23.342;2022-12-19T09:44:15;54.80;;;32.13;;
6223;SDS011;3145;42.726;23.342;2022-12-19T09:46:53;51.60;;;28.50;;
6223;SDS011;3145;42.726;23.342;2022-12-19T09:49:22;51.03;;;28.30;;
6223;SDS011;3145;42.726;23.342;2022-12-19T09:51:55;45.40;;;28.00;;
6223;SDS011;3145;42.726;23.342;2022-12-19T09:54:25;64.60;;;34.63;;
6223;SDS011;3145;42.726;23.342;2022-12-19T09:57:00;32.60;;;21.87;;
6223;SDS011;3145;42.726;23.342;2022-12-19T09:59:30;43.17;;;23.97;;
6223;SDS011;3145;42.726;23.342;2022-12-19T10:02:11;43.43;;;25.77;;
6223;SDS011;3145;42.726;23.342;2022-12-19T10:04:52;49.03;;;29.17;;
6223;SDS011;3145;42.726;23.342;2022-12-19T10:07:25;55.20;;;29.90;;
6223;SDS011;3145;42.726;23.342;2022-12-19T10:09:52;37.83;;;21.73;;
6223;SDS011;3145;42.726;23.342;2022-12-19T10:12:35;39.43;;;23.27;;
6223;SDS011;3145;42.726;23.342;2022-12-19T10:15:12;37.13;;;21.90;;
6223;SDS011;3145;42.726;23.342;2022-12-19T10:17:53;55.53;;;28.57;;
6223;SDS011;3145;42.726;23.342;2022-12-19T10:20:38;63.10;;;35.43;;
6223;SDS011;3145;42.726;23.342;2022-12-19T10:23:22;135.03;;;58.30;;
6223;SDS011;3145;42.726;23.342;2022-12-19T10:26:09;56.10;;;28.93;;
6223;SDS011;3145;42.726;23.342;2022-12-19T10:28:52;50.13;;;27.37;;
6223;SDS011;3145;42.726;23.342;2022-12-19T10:31:35;124.73;;;49.87;;
6223;SDS011;3145;42.726;23.342;2022-12-19T10:34:10;180.57;;;80.93;;
6223;SDS011;3145;42.726;23.342;2022-12-19T10:36:44;82.53;;;39.40;;
6223;SDS011;3145;42.726;23.342;2022-12-19T10:39:15;60.13;;;31.47;;
6223;SDS011;3145;42.726;23.342;2022-12-19T10:41:52;43.63;;;25.70;;
6223;SDS011;3145;42.726;23.342;2022-12-19T10:44:22;46.97;;;27.97;;
6223;SDS011;3145;42.726;23.342;2022-12-19T10:46:53;46.40;;;29.67;;
6223;SDS011;3145;42.726;23.342;2022-12-19T10:49:20;43.00;;;25.67;;
6223;SDS011;3145;42.726;23.342;2022-12-19T10:51:56;43.90;;;27.00;;
6223;SDS011;3145;42.726;23.342;2022-12-19T10:54:24;37.03;;;20.50;;
6223;SDS011;3145;42.726;23.342;2022-12-19T10:56:51;57.10;;;32.93;;
6223;SDS011;3145;42.726;23.342;2022-12-19T10:59:18;54.77;;;32.17;;
6223;SDS011;3145;42.726;23.342;2022-12-19T11:01:48;79.57;;;34.47;;
6223;SDS011;3145;42.726;23.342;2022-12-19T11:04:20;37.87;;;23.17;;
6223;SDS011;3145;42.726;23.342;2022-12-19T11:07:03;88.27;;;43.93;;
6223;SDS011;3145;42.726;23.342;2022-12-19T11:09:34;47.57;;;25.87;;
6223;SDS011;3145;42.726;23.342;2022-12-19T11:12:09;47.37;;;27.70;;
6223;SDS011;3145;42.726;23.342;2022-12-19T11:14:38;37.23;;;23.17;;
6223;SDS011;3145;42.726;23.342;2022-12-19T11:20:11;30.47;;;19.50;;
6223;SDS011;3145;42.726;23.342;2022-12-19T11:22:39;41.70;;;24.97;;
6223;SDS011;3145;42.726;23.342;2022-12-19T11:25:18;43.47;;;24.93;;
6223;SDS011;3145;42.726;23.342;2022-12-19T11:27:46;41.10;;;23.67;;
6223;SDS011;3145;42.726;23.342;2022-12-19T11:30:19;42.10;;;25.70;;
6223;SDS011;3145;42.726;23.342;2022-12-19T11:32:47;86.47;;;47.80;;
6223;SDS011;3145;42.726;23.342;2022-12-19T11:35:32;41.33;;;25.07;;
6223;SDS011;3145;42.726;23.342;2022-12-19T11:38:11;42.93;;;28.37;;
6223;SDS011;3145;42.726;23.342;2022-12-19T11:40:43;30.90;;;21.07;;
6223;SDS011;3145;42.726;23.342;2022-12-19T11:43:14;37.73;;;28.10;;
6223;SDS011;3145;42.726;23.342;2022-12-19T11:45:47;118.00;;;70.10;;
6223;SDS011;3145;42.726;23.342;2022-12-19T11:48:22;82.07;;;50.30;;
6223;SDS011;3145;42.726;23.342;2022-12-19T11:51:00;102.83;;;63.60;;
6223;SDS011;3145;42.726;23.342;2022-12-19T11:53:33;89.67;;;44.17;;
6223;SDS011;3145;42.726;23.342;2022-12-19T11:56:09;22.20;;;14.80;;
6223;SDS011;3145;42.726;23.342;2022-12-19T11:58:38;24.70;;;17.47;;
6223;SDS011;3145;42.726;23.342;2022-12-19T12:01:11;33.50;;;18.13;;
6223;SDS011;3145;42.726;23.342;2022-12-19T12:04:07;71.37;;;31.07;;
6223;SDS011;3145;42.726;23.342;2022-12-19T12:06:51;72.83;;;32.53;;
6223;SDS011;3145;42.726;23.342;2022-12-19T12:09:22;90.67;;;38.00;;
6223;SDS011;3145;42.726;23.342;2022-12-19T12:11:57;54.00;;;27.37;;
6223;SDS011;3145;42.726;23.342;2022-12-19T12:14:38;62.60;;;30.43;;
6223;SDS011;3145;42.726;23.342;2022-12-19T12:17:24;44.27;;;24.40;;
6223;SDS011;3145;42.726;23.342;2022-12-19T12:20:09;121.17;;;44.00;;
6223;SDS011;3145;42.726;23.342;2022-12-19T12:22:58;38.03;;;23.93;;
6223;SDS011;3145;42.726;23.342;2022-12-19T12:25:39;60.33;;;29.13;;
6223;SDS011;3145;42.726;23.342;2022-12-19T12:28:29;53.33;;;29.00;;
6223;SDS011;3145;42.726;23.342;2022-12-19T12:31:10;28.47;;;18.40;;
6223;SDS011;3145;42.726;23.342;2022-12-19T12:33:59;31.10;;;19.67;;
6223;SDS011;3145;42.726;23.342;2022-12-19T12:36:35;29.80;;;20.03;;
6223;SDS011;3145;42.726;23.342;2022-12-19T12:39:12;50.67;;;26.20;;
6223;SDS011;3145;42.726;23.342;2022-12-19T12:41:47;51.60;;;25.60;;
6223;SDS011;3145;42.726;23.342;2022-12-19T12:44:30;34.40;;;19.77;;
6223;SDS011;3145;42.726;23.342;2022-12-19T12:47:00;29.43;;;18.77;;
6223;SDS011;3145;42.726;23.342;2022-12-19T12:49:35;41.20;;;23.83;;
6223;SDS011;3145;42.726;23.342;2022-12-19T12:52:04;80.17;;;37.80;;
6223;SDS011;3145;42.726;23.342;2022-12-19T12:54:36;54.00;;;29.80;;
6223;SDS011;3145;42.726;23.342;2022-12-19T12:57:12;35.70;;;20.47;;
6223;SDS011;3145;42.726;23.342;2022-12-19T12:59:43;34.33;;;20.77;;
6223;SDS011;3145;42.726;23.342;2022-12-19T13:02:12;35.50;;;21.73;;
6223;SDS011;3145;42.726;23.342;2022-12-19T13:04:53;25.57;;;18.03;;
6223;SDS011;3145;42.726;23.342;2022-12-19T13:07:29;33.67;;;22.03;;
6223;SDS011;3145;42.726;23.342;2022-12-19T13:10:13;29.40;;;20.60;;
6223;SDS011;3145;42.726;23.342;2022-12-19T13:12:56;38.50;;;24.53;;
6223;SDS011;3145;42.726;23.342;2022-12-19T13:15:40;34.07;;;21.23;;
6223;SDS011;3145;42.726;23.342;2022-12-19T13:21:06;26.80;;;18.60;;
6223;SDS011;3145;42.726;23.342;2022-12-19T13:23:42;44.10;;;25.60;;
6223;SDS011;3145;42.726;23.342;2022-12-19T13:26:42;36.47;;;21.47;;
6223;SDS011;3145;42.726;23.342;2022-12-19T13:29:31;35.77;;;22.27;;
6223;SDS011;3145;42.726;23.342;2022-12-19T13:32:15;41.17;;;22.47;;
6223;SDS011;3145;42.726;23.342;2022-12-19T13:34:52;37.07;;;22.57;;
6223;SDS011;3145;42.726;23.342;2022-12-19T13:37:24;19.03;;;14.03;;
6223;SDS011;3145;42.726;23.342;2022-12-19T13:42:56;22.00;;;13.73;;
6223;SDS011;3145;42.726;23.342;2022-12-19T13:45:49;21.77;;;14.50;;
6223;SDS011;3145;42.726;23.342;2022-12-19T13:48:20;21.50;;;12.57;;
6223;SDS011;3145;42.726;23.342;2022-12-19T13:50:53;25.73;;;18.33;;
6223;SDS011;3145;42.726;23.342;2022-12-19T13:53:22;34.10;;;20.57;;
6223;SDS011;3145;42.726;23.342;2022-12-19T13:55:52;23.00;;;15.67;;
6223;SDS011;3145;42.726;23.342;2022-12-19T13:58:22;18.03;;;13.43;;
6223;SDS011;3145;42.726;23.342;2022-12-19T14:00:52;23.67;;;17.00;;
6223;SDS011;3145;42.726;23.342;2022-12-19T14:03:24;27.03;;;15.30;;
6223;SDS011;3145;42.726;23.342;2022-12-19T14:05:58;31.43;;;21.40;;
6223;SDS011;3145;42.726;23.342;2022-12-19T14:08:28;42.03;;;18.97;;
6223;SDS011;3145;42.726;23.342;2022-12-19T14:10:55;25.73;;;15.10;;
6223;SDS011;3145;42.726;23.342;2022-12-19T14:13:24;30.17;;;20.20;;
6223;SDS011;3145;42.726;23.342;2022-12-19T14:16:12;36.97;;;23.27;;
6223;SDS011;3145;42.726;23.342;2022-12-19T14:18:40;19.97;;;14.87;;
6223;SDS011;3145;42.726;23.342;2022-12-19T14:21:14;15.30;;;13.67;;
6223;SDS011;3145;42.726;23.342;2022-12-19T14:23:42;23.07;;;14.10;;
6223;SDS011;3145;42.726;23.342;2022-12-19T14:26:11;26.23;;;16.90;;
6223;SDS011;3145;42.726;23.342;2022-12-19T14:28:42;31.10;;;17.83;;
6223;SDS011;3145;42.726;23.342;2022-12-19T14:31:14;30.13;;;19.53;;
6223;SDS011;3145;42.726;23.342;2022-12-19T14:33:43;25.07;;;17.40;;
6223;SDS011;3145;42.726;23.342;2022-12-19T14:36:12;24.63;;;17.57;;
6223;SDS011;3145;42.726;23.342;2022-12-19T14:38:45;29.07;;;18.77;;
6223;SDS011;3145;42.726;23.342;2022-12-19T14:41:16;32.00;;;19.87;;
6223;SDS011;3145;42.726;23.342;2022-12-19T14:47:23;25.30;;;18.60;;
6223;SDS011;3145;42.726;23.342;2022-12-19T14:49:58;15.77;;;13.37;;
6223;SDS011;3145;42.726;23.342;2022-12-19T14:52:38;37.73;;;21.63;;
6223;SDS011;3145;42.726;23.342;2022-12-19T14:55:13;37.83;;;25.50;;
6223;SDS011;3145;42.726;23.342;2022-12-19T14:57:54;25.80;;;17.27;;
6223;SDS011;3145;42.726;23.342;2022-12-19T15:00:24;147.80;;;61.23;;
6223;SDS011;3145;42.726;23.342;2022-12-19T15:02:55;56.40;;;25.33;;
6223;SDS011;3145;42.726;23.342;2022-12-19T15:05:25;170.93;;;69.07;;
6223;SDS011;3145;42.726;23.342;2022-12-19T15:07:53;171.33;;;77.10;;
6223;SDS011;3145;42.726;23.342;2022-12-19T15:10:23;102.00;;;47.70;;
6223;SDS011;3145;42.726;23.342;2022-12-19T15:12:54;40.43;;;24.93;;
6223;SDS011;3145;42.726;23.342;2022-12-19T15:15:41;32.90;;;19.77;;
6223;SDS011;3145;42.726;23.342;2022-12-19T15:18:18;37.27;;;24.50;;